createdAt,value
2023-01-07T05:00:33.481Z,1007.19
2023-01-07T05:01:33.436Z,1007.14
2023-01-07T05:02:33.321Z,1007.15
2023-01-07T05:03:33.299Z,1007.09
2023-01-07T05:04:33.323Z,1006.99
2023-01-07T05:05:33.286Z,1007.02
2023-01-07T05:06:33.268Z,1007.06
2023-01-07T05:07:33.257Z,1007.13
2023-01-07T05:08:33.256Z,1007.08
2023-01-07T05:09:33.243Z,1007.07
2023-01-07T05:10:33.236Z,1007.09
2023-01-07T05:11:38.234Z,1007.02
2023-01-07T05:12:33.202Z,1007.07
2023-01-07T05:13:33.189Z,1007.06
2023-01-07T05:14:33.180Z,1006.99
2023-01-07T05:15:33.177Z,1007.02
2023-01-07T05:16:33.372Z,1006.97
2023-01-07T05:17:33.145Z,1006.99
2023-01-07T05:18:33.134Z,1006.95
2023-01-07T05:19:33.142Z,1006.93
2023-01-07T05:20:33.117Z,1006.94
2023-01-07T05:21:33.102Z,1006.88
2023-01-07T05:22:38.167Z,1006.89
2023-01-07T05:23:33.100Z,1006.90
2023-01-07T05:24:33.064Z,1006.87
2023-01-07T05:25:33.100Z,1006.91
2023-01-07T05:26:33.066Z,1006.89
2023-01-07T05:27:33.095Z,1006.85
2023-01-07T05:28:33.016Z,1006.87
2023-01-07T05:29:33.037Z,1006.81
2023-01-07T05:30:33.058Z,1006.84
2023-01-07T05:31:33.053Z,1006.81
2023-01-07T05:32:33.092Z,1006.84
2023-01-07T05:33:37.983Z,1006.82
2023-01-07T05:34:32.957Z,1006.79
2023-01-07T05:35:32.975Z,1006.76
2023-01-07T05:36:32.927Z,1006.66
2023-01-07T05:37:32.931Z,1006.75
2023-01-07T05:38:32.905Z,1006.70
2023-01-07T05:39:32.924Z,1006.72
2023-01-07T05:40:32.886Z,1006.70
2023-01-07T05:41:32.873Z,1006.62
2023-01-07T05:42:32.862Z,1006.64
2023-01-07T05:43:32.983Z,1006.69
2023-01-07T05:44:37.880Z,1006.63
2023-01-07T05:45:32.825Z,1006.74
2023-01-07T05:46:32.887Z,1006.60
2023-01-07T05:47:32.809Z,1006.62
2023-01-07T05:48:32.907Z,1006.60
2023-01-07T05:49:32.781Z,1006.64
2023-01-07T05:50:32.789Z,1006.57
2023-01-07T05:51:32.775Z,1006.59
2023-01-07T05:52:32.745Z,1006.56
2023-01-07T05:53:32.744Z,1006.56
2023-01-07T05:54:32.724Z,1006.56
2023-01-07T05:55:37.754Z,1006.57
2023-01-07T05:56:32.704Z,1006.59
2023-01-07T05:57:32.700Z,1006.55
2023-01-07T05:58:32.688Z,1006.59
2023-01-07T05:59:32.674Z,1006.56
2023-01-07T06:00:32.688Z,1006.56
2023-01-07T06:01:32.753Z,1006.54
2023-01-07T06:02:32.674Z,1006.52
2023-01-07T06:03:32.727Z,1006.52
2023-01-07T06:04:32.818Z,1006.57
2023-01-07T06:05:32.619Z,1006.58
2023-01-07T06:06:37.623Z,1006.57
2023-01-07T06:07:32.578Z,1006.61
2023-01-07T06:08:32.571Z,1006.54
2023-01-07T06:09:32.574Z,1006.51
2023-01-07T06:10:32.557Z,1006.59
2023-01-07T06:11:32.546Z,1006.57
2023-01-07T06:12:32.542Z,1006.56
2023-01-07T06:13:32.513Z,1006.55
2023-01-07T06:14:32.500Z,1006.48
2023-01-07T06:15:32.594Z,1006.54
2023-01-07T06:16:32.478Z,1006.54
2023-01-07T06:17:37.506Z,1006.53
2023-01-07T06:18:32.479Z,1006.46
2023-01-07T06:19:32.439Z,1006.55
2023-01-07T06:20:32.581Z,1006.53
2023-01-07T06:21:32.422Z,1006.47
2023-01-07T06:22:32.402Z,1006.43
2023-01-07T06:23:32.397Z,1006.45
2023-01-07T06:24:32.423Z,1006.43
2023-01-07T06:25:32.411Z,1006.38
2023-01-07T06:26:32.374Z,1006.43
2023-01-07T06:27:32.350Z,1006.42
2023-01-07T06:28:37.371Z,1006.31
2023-01-07T06:29:32.352Z,1006.34
2023-01-07T06:30:32.328Z,1006.40
2023-01-07T06:31:32.495Z,1006.40
2023-01-07T06:32:32.374Z,1006.42
2023-01-07T06:33:33.595Z,1006.44
2023-01-07T06:34:33.282Z,1006.36
2023-01-07T06:35:32.294Z,1006.32
2023-01-07T06:36:32.377Z,1006.33
2023-01-07T06:37:32.239Z,1006.32
2023-01-07T06:38:32.228Z,1006.32
2023-01-07T06:39:37.244Z,1006.26
2023-01-07T06:40:32.220Z,1006.27
2023-01-07T06:41:32.200Z,1006.26
2023-01-07T06:42:32.177Z,1006.23
2023-01-07T06:43:32.184Z,1006.18
2023-01-07T06:44:33.167Z,1006.16
2023-01-07T06:45:32.177Z,1006.21
2023-01-07T06:46:32.236Z,1006.21
2023-01-07T06:47:32.148Z,1006.16
2023-01-07T06:48:32.106Z,1006.14
2023-01-07T06:49:32.102Z,1006.22
2023-01-07T06:50:37.236Z,1006.18
2023-01-07T06:51:32.137Z,1006.10
2023-01-07T06:52:32.191Z,1006.16
2023-01-07T06:53:32.170Z,1006.23
2023-01-07T06:54:32.038Z,1006.11
2023-01-07T06:55:32.069Z,1006.04
2023-01-07T06:56:32.040Z,1006.13
2023-01-07T06:57:32.043Z,1006.08
2023-01-07T06:58:31.999Z,1006.05
2023-01-07T06:59:31.985Z,1006.03
2023-01-07T07:00:32.116Z,1006.02
2023-01-07T07:01:37.184Z,1005.94
2023-01-07T07:02:32.130Z,1005.99
2023-01-07T07:03:31.959Z,1005.95
2023-01-07T07:04:31.954Z,1005.92
2023-01-07T07:05:31.939Z,1005.92
2023-01-07T07:06:31.915Z,1005.96
2023-01-07T07:07:31.893Z,1005.90
2023-01-07T07:08:32.031Z,1005.93
2023-01-07T07:09:31.876Z,1005.93
2023-01-07T07:10:31.884Z,1005.99
2023-01-07T07:11:31.858Z,1005.93
2023-01-07T07:12:36.867Z,1005.92
2023-01-07T07:13:31.824Z,1005.96
2023-01-07T07:14:31.819Z,1005.93
2023-01-07T07:15:31.825Z,1005.90
2023-01-07T07:16:32.798Z,1005.96
2023-01-07T07:17:31.797Z,1005.95
2023-01-07T07:18:31.787Z,1005.98
2023-01-07T07:19:31.785Z,1005.95
2023-01-07T07:20:31.772Z,1005.87
2023-01-07T07:21:31.794Z,1005.87
2023-01-07T07:22:31.727Z,1005.87
2023-01-07T07:23:36.853Z,1005.86
2023-01-07T07:24:31.717Z,1005.82
2023-01-07T07:25:31.698Z,1005.87
2023-01-07T07:26:31.828Z,1005.84
2023-01-07T07:27:31.665Z,1005.80
2023-01-07T07:28:31.650Z,1005.83
2023-01-07T07:29:31.654Z,1005.83
2023-01-07T07:30:45.478Z,1005.90
2023-01-07T07:31:32.735Z,1005.82
2023-01-07T07:32:31.612Z,1005.83
2023-01-07T07:33:31.596Z,1005.79
2023-01-07T07:34:36.607Z,1005.78
2023-01-07T07:35:31.582Z,1005.82
2023-01-07T07:36:31.581Z,1005.79
2023-01-07T07:37:31.558Z,1005.77
2023-01-07T07:38:31.543Z,1005.77
2023-01-07T07:39:31.659Z,1005.75
2023-01-07T07:40:31.520Z,1005.75
2023-01-07T07:41:31.527Z,1005.77
2023-01-07T07:42:31.492Z,1005.69
2023-01-07T07:43:31.515Z,1005.68
2023-01-07T07:44:31.467Z,1005.70
2023-01-07T07:45:36.500Z,1005.68
2023-01-07T07:46:31.484Z,1005.73
2023-01-07T07:47:31.649Z,1005.68
2023-01-07T07:48:31.427Z,1005.62
2023-01-07T07:49:31.423Z,1005.68
2023-01-07T07:50:32.395Z,1005.63
2023-01-07T07:51:31.422Z,1005.56
2023-01-07T07:52:31.379Z,1005.56
2023-01-07T07:53:31.364Z,1005.58
2023-01-07T07:54:31.358Z,1005.53
2023-01-07T07:55:31.475Z,1005.49
2023-01-07T07:56:36.364Z,1005.53
2023-01-07T07:57:31.327Z,1005.54
2023-01-07T07:58:31.307Z,1005.49
2023-01-07T07:59:31.305Z,1005.55
2023-01-07T08:00:31.294Z,1005.50
2023-01-07T08:01:31.451Z,1005.48
2023-01-07T08:02:31.350Z,1005.52
2023-01-07T08:03:31.307Z,1005.48
2023-01-07T08:04:31.258Z,1005.50
2023-01-07T08:05:31.234Z,1005.47
2023-01-07T08:06:31.245Z,1005.42
2023-01-07T08:07:37.689Z,1005.36
2023-01-07T08:08:31.195Z,1005.46
2023-01-07T08:09:31.184Z,1005.43
2023-01-07T08:10:31.191Z,1005.43
2023-01-07T08:11:31.290Z,1005.47
2023-01-07T08:12:31.165Z,1005.44
2023-01-07T08:13:31.154Z,1005.42
2023-01-07T08:14:31.124Z,1005.41
2023-01-07T08:15:31.118Z,1005.40
2023-01-07T08:16:31.174Z,1005.38
2023-01-07T08:17:31.106Z,1005.41
2023-01-07T08:18:36.139Z,1005.42
2023-01-07T08:19:31.081Z,1005.43
2023-01-07T08:20:31.056Z,1005.37
2023-01-07T08:21:31.060Z,1005.39
2023-01-07T08:22:31.048Z,1005.43
2023-01-07T08:23:31.028Z,1005.42
2023-01-07T08:24:31.015Z,1005.48
2023-01-07T08:25:31.002Z,1005.41
2023-01-07T08:26:31.057Z,1005.44
2023-01-07T08:27:31.088Z,1005.39
2023-01-07T08:28:30.983Z,1005.41
2023-01-07T08:29:35.994Z,1005.37
2023-01-07T08:30:30.942Z,1005.40
2023-01-07T08:31:31.009Z,1005.33
2023-01-07T08:32:30.928Z,1005.25
2023-01-07T08:33:30.922Z,1005.23
2023-01-07T08:34:30.895Z,1005.23
2023-01-07T08:35:30.902Z,1005.23
2023-01-07T08:36:30.895Z,1005.25
2023-01-07T08:37:30.875Z,1005.28
2023-01-07T08:38:30.892Z,1005.25
2023-01-07T08:39:30.863Z,1005.24
2023-01-07T08:40:35.853Z,1005.35
2023-01-07T08:41:30.850Z,1005.35
2023-01-07T08:42:30.801Z,1005.36
2023-01-07T08:43:30.915Z,1005.32
2023-01-07T08:44:30.781Z,1005.34
2023-01-07T08:45:30.835Z,1005.30
2023-01-07T08:46:30.898Z,1005.33
2023-01-07T08:47:30.742Z,1005.36
2023-01-07T08:48:30.734Z,1005.34
2023-01-07T08:49:30.731Z,1005.31
2023-01-07T08:50:30.734Z,1005.29
2023-01-07T08:51:35.728Z,1005.27
2023-01-07T08:52:30.694Z,1005.29
2023-01-07T08:53:30.681Z,1005.23
2023-01-07T08:54:30.665Z,1005.24
2023-01-07T08:55:30.699Z,1005.25
2023-01-07T08:56:30.648Z,1005.24
2023-01-07T08:57:30.634Z,1005.25
2023-01-07T08:58:30.631Z,1005.19
2023-01-07T08:59:30.729Z,1005.21
2023-01-07T09:00:30.650Z,1005.17
2023-01-07T09:01:30.768Z,1005.21
2023-01-07T09:02:35.639Z,1005.15
2023-01-07T09:03:30.576Z,1005.15
2023-01-07T09:04:30.551Z,1005.17
2023-01-07T09:05:30.542Z,1005.15
2023-01-07T09:06:30.540Z,1005.17
2023-01-07T09:07:30.560Z,1005.14
2023-01-07T09:08:30.585Z,1005.07
2023-01-07T09:09:30.501Z,1005.01
2023-01-07T09:10:30.504Z,1005.01
2023-01-07T09:11:30.559Z,1005.04
2023-01-07T09:12:31.469Z,1004.99
2023-01-07T09:13:35.494Z,1004.97
2023-01-07T09:14:30.436Z,1004.96
2023-01-07T09:15:30.534Z,1005.03
2023-01-07T09:16:30.494Z,1004.95
2023-01-07T09:17:30.459Z,1004.93
2023-01-07T09:18:30.388Z,1005.00
2023-01-07T09:19:30.385Z,1004.91
2023-01-07T09:20:30.369Z,1004.94
2023-01-07T09:21:30.359Z,1004.95
2023-01-07T09:22:30.364Z,1004.93
2023-01-07T09:23:30.337Z,1004.93
2023-01-07T09:24:35.351Z,1004.93
2023-01-07T09:25:30.309Z,1004.91
2023-01-07T09:26:30.320Z,1004.88
2023-01-07T09:27:30.308Z,1004.91
2023-01-07T09:28:30.275Z,1004.88
2023-01-07T09:29:30.266Z,1004.84
2023-01-07T09:30:30.270Z,1004.76
2023-01-07T09:31:30.347Z,1004.84
2023-01-07T09:32:30.264Z,1004.76
2023-01-07T09:33:30.221Z,1004.72
2023-01-07T09:34:30.214Z,1004.75
2023-01-07T09:35:35.218Z,1004.65
2023-01-07T09:36:30.182Z,1004.68
2023-01-07T09:37:30.183Z,1004.67
2023-01-07T09:38:30.169Z,1004.70
2023-01-07T09:39:30.159Z,1004.67
2023-01-07T09:40:30.147Z,1004.70
2023-01-07T09:41:30.128Z,1004.74
2023-01-07T09:42:31.528Z,1004.72
2023-01-07T09:44:00.204Z,1004.81
2023-01-07T09:44:31.115Z,1004.75
2023-01-07T09:45:30.215Z,1004.73
2023-01-07T09:46:35.216Z,1004.80
2023-01-07T09:47:30.097Z,1004.77
2023-01-07T09:48:30.051Z,1004.76
2023-01-07T09:49:30.052Z,1004.72
2023-01-07T09:50:30.029Z,1004.75
2023-01-07T09:51:30.016Z,1004.68
2023-01-07T09:52:30.021Z,1004.69
2023-01-07T09:53:30.000Z,1004.73
2023-01-07T09:54:29.992Z,1004.69
2023-01-07T09:55:30.024Z,1004.70
2023-01-07T09:56:29.967Z,1004.67
2023-01-07T09:57:34.989Z,1004.64
2023-01-07T09:58:29.950Z,1004.62
2023-01-07T09:59:29.933Z,1004.63
2023-01-07T10:00:29.915Z,1004.66
2023-01-07T10:01:29.946Z,1004.61
2023-01-07T10:02:30.104Z,1004.61
2023-01-07T10:03:29.961Z,1004.63
2023-01-07T10:04:29.883Z,1004.64
2023-01-07T10:05:29.873Z,1004.63
2023-01-07T10:06:42.769Z,1004.58
2023-01-07T10:07:30.842Z,1004.59
2023-01-07T10:08:34.848Z,1004.64
2023-01-07T10:09:29.810Z,1004.62
2023-01-07T10:10:29.805Z,1004.52
2023-01-07T10:11:29.803Z,1004.56
2023-01-07T10:12:29.788Z,1004.54
2023-01-07T10:13:29.763Z,1004.55
2023-01-07T10:14:29.790Z,1004.58
2023-01-07T10:15:29.747Z,1004.53
2023-01-07T10:16:29.832Z,1004.59
2023-01-07T10:17:29.728Z,1004.53
2023-01-07T10:18:29.834Z,1004.57
2023-01-07T10:19:34.723Z,1004.54
2023-01-07T10:20:29.735Z,1004.51
2023-01-07T10:21:29.684Z,1004.53
2023-01-07T10:22:29.669Z,1004.51
2023-01-07T10:23:29.659Z,1004.51
2023-01-07T10:24:29.691Z,1004.48
2023-01-07T10:25:29.651Z,1004.49
2023-01-07T10:26:29.633Z,1004.47
2023-01-07T10:27:29.629Z,1004.41
2023-01-07T10:28:29.671Z,1004.50
2023-01-07T10:29:29.597Z,1004.47
2023-01-07T10:30:34.598Z,1004.46
2023-01-07T10:31:29.617Z,1004.45
2023-01-07T10:32:29.553Z,1004.42
2023-01-07T10:33:29.537Z,1004.42
2023-01-07T10:34:29.654Z,1004.40
2023-01-07T10:35:29.523Z,1004.33
2023-01-07T10:36:29.522Z,1004.34
2023-01-07T10:37:29.499Z,1004.32
2023-01-07T10:38:29.493Z,1004.30
2023-01-07T10:39:29.475Z,1004.27
2023-01-07T10:40:29.484Z,1004.21
2023-01-07T10:41:34.477Z,1004.09
2023-01-07T10:42:29.459Z,1004.05
2023-01-07T10:43:29.424Z,1004.03
2023-01-07T10:44:29.420Z,1004.08
2023-01-07T10:45:29.443Z,1004.04
2023-01-07T10:46:29.438Z,1003.98
2023-01-07T10:47:30.375Z,1004.00
2023-01-07T10:48:29.373Z,1004.03
2023-01-07T10:49:29.360Z,1003.96
2023-01-07T10:50:29.485Z,1003.98
2023-01-07T10:51:29.347Z,1003.94
2023-01-07T10:52:34.358Z,1003.91
2023-01-07T10:53:29.314Z,1003.94
2023-01-07T10:54:29.301Z,1003.81
2023-01-07T10:55:29.287Z,1003.85
2023-01-07T10:56:29.292Z,1003.85
2023-01-07T10:57:29.274Z,1003.81
2023-01-07T10:58:29.289Z,1003.82
2023-01-07T10:59:29.250Z,1003.76
2023-01-07T11:00:29.249Z,1003.79
2023-01-07T11:01:29.401Z,1003.79
2023-01-07T11:02:29.586Z,1003.76
2023-01-07T11:03:34.225Z,1003.79
2023-01-07T11:04:29.208Z,1003.72
2023-01-07T11:05:29.172Z,1003.69
2023-01-07T11:06:29.202Z,1003.70
2023-01-07T11:07:29.165Z,1003.68
2023-01-07T11:08:29.154Z,1003.71
2023-01-07T11:09:29.143Z,1003.65
2023-01-07T11:10:29.131Z,1003.65
2023-01-07T11:11:29.200Z,1003.66
2023-01-07T11:12:29.103Z,1003.68
2023-01-07T11:13:29.088Z,1003.65
2023-01-07T11:14:34.131Z,1003.64
2023-01-07T11:15:29.088Z,1003.56
2023-01-07T11:16:29.231Z,1003.61
2023-01-07T11:17:29.113Z,1003.58
2023-01-07T11:18:29.041Z,1003.55
2023-01-07T11:19:29.019Z,1003.45
2023-01-07T11:20:29.011Z,1003.44
2023-01-07T11:21:44.416Z,1003.47
2023-01-07T11:22:30.114Z,1003.45
2023-01-07T11:23:28.991Z,1003.44
2023-01-07T11:24:28.981Z,1003.49
2023-01-07T11:25:34.007Z,1003.44
2023-01-07T11:26:28.960Z,1003.48
2023-01-07T11:27:28.939Z,1003.45
2023-01-07T11:28:28.925Z,1003.44
2023-01-07T11:29:28.906Z,1003.43
2023-01-07T11:30:28.898Z,1003.43
2023-01-07T11:31:28.910Z,1003.43
2023-01-07T11:32:28.871Z,1003.39
2023-01-07T11:34:01.451Z,1003.40
2023-01-07T11:34:29.843Z,1003.40
2023-01-07T11:35:28.831Z,1003.32
2023-01-07T11:36:33.892Z,1003.31
2023-01-07T11:37:28.869Z,1003.25
2023-01-07T11:38:28.942Z,1003.24
2023-01-07T11:39:28.791Z,1003.24
2023-01-07T11:40:28.794Z,1003.18
2023-01-07T11:41:28.795Z,1003.22
2023-01-07T11:42:28.760Z,1003.17
2023-01-07T11:43:28.740Z,1003.16
2023-01-07T11:44:28.733Z,1003.08
2023-01-07T11:45:28.774Z,1003.09
2023-01-07T11:46:28.963Z,1003.10
2023-01-07T11:47:33.723Z,1003.02
2023-01-07T11:48:29.686Z,1003.09
2023-01-07T11:49:28.702Z,1003.15
2023-01-07T11:50:28.676Z,1003.08
2023-01-07T11:51:28.684Z,1003.03
2023-01-07T11:52:28.651Z,1002.95
2023-01-07T11:53:28.627Z,1002.95
2023-01-07T11:54:28.766Z,1003.00
2023-01-07T11:55:28.602Z,1003.03
2023-01-07T11:56:28.603Z,1003.03
2023-01-07T11:57:28.599Z,1002.92
2023-01-07T11:58:33.626Z,1002.92
2023-01-07T11:59:28.566Z,1002.95
2023-01-07T12:00:28.683Z,1002.86
2023-01-07T12:01:28.567Z,1002.90
2023-01-07T12:02:28.574Z,1002.80
2023-01-07T12:03:28.556Z,1002.78
2023-01-07T12:04:28.511Z,1002.82
2023-01-07T12:05:28.500Z,1002.72
2023-01-07T12:06:28.489Z,1002.71
2023-01-07T12:07:28.490Z,1002.70
2023-01-07T12:08:28.469Z,1002.60
2023-01-07T12:09:33.580Z,1002.65
2023-01-07T12:10:28.435Z,1002.64
2023-01-07T12:11:28.438Z,1002.59
2023-01-07T12:12:28.434Z,1002.56
2023-01-07T12:13:28.397Z,1002.54
2023-01-07T12:14:28.435Z,1002.53
2023-01-07T12:15:28.417Z,1002.53
2023-01-07T12:16:28.550Z,1002.47
2023-01-07T12:17:28.363Z,1002.52
2023-01-07T12:18:28.356Z,1002.51
2023-01-07T12:19:28.367Z,1002.48
2023-01-07T12:20:33.382Z,1002.45
2023-01-07T12:21:28.310Z,1002.43
2023-01-07T12:22:28.309Z,1002.42
2023-01-07T12:23:28.301Z,1002.44
2023-01-07T12:24:28.280Z,1002.35
2023-01-07T12:25:28.392Z,1002.34
2023-01-07T12:26:28.279Z,1002.37
2023-01-07T12:27:28.276Z,1002.28
2023-01-07T12:28:28.232Z,1002.24
2023-01-07T12:29:28.251Z,1002.22
2023-01-07T12:30:28.219Z,1002.24
2023-01-07T12:31:33.456Z,1002.28
2023-01-07T12:32:28.201Z,1002.25
2023-01-07T12:33:28.181Z,1002.25
2023-01-07T12:34:28.177Z,1002.24
2023-01-07T12:35:28.168Z,1002.19
2023-01-07T12:36:28.159Z,1002.20
2023-01-07T12:37:28.150Z,1002.15
2023-01-07T12:38:28.123Z,1002.17
2023-01-07T12:39:28.120Z,1002.19
2023-01-07T12:40:28.097Z,1002.19
2023-01-07T12:41:28.197Z,1002.13
2023-01-07T12:42:33.113Z,1002.12
2023-01-07T12:43:28.057Z,1002.10
2023-01-07T12:44:28.060Z,1002.14
2023-01-07T12:45:28.038Z,1002.11
2023-01-07T12:46:28.062Z,1002.05
2023-01-07T12:47:30.537Z,1002.07
2023-01-07T12:48:28.009Z,1002.04
2023-01-07T12:49:27.990Z,1002.04
2023-01-07T12:50:27.988Z,1002.02
2023-01-07T12:51:27.981Z,1002.06
2023-01-07T12:52:27.981Z,1002.03
2023-01-07T12:53:33.008Z,1001.97
2023-01-07T12:54:28.940Z,1001.98
2023-01-07T12:55:27.924Z,1001.95
2023-01-07T12:56:27.918Z,1001.91
2023-01-07T12:57:28.024Z,1001.90
2023-01-07T12:58:27.916Z,1001.92
2023-01-07T12:59:45.883Z,1001.92
2023-01-07T13:00:28.865Z,1001.91
2023-01-07T13:01:27.936Z,1001.88
2023-01-07T13:02:27.997Z,1001.83
2023-01-07T13:03:27.922Z,1001.91
2023-01-07T13:04:32.868Z,1001.80
2023-01-07T13:05:27.812Z,1001.81
2023-01-07T13:06:27.799Z,1001.83
2023-01-07T13:07:27.837Z,1001.79
2023-01-07T13:08:28.771Z,1001.78
2023-01-07T13:09:27.770Z,1001.73
2023-01-07T13:10:27.750Z,1001.73
2023-01-07T13:11:27.744Z,1001.76
2023-01-07T13:12:41.883Z,1001.72
2023-01-07T13:13:28.832Z,1001.70
2023-01-07T13:14:27.708Z,1001.63
2023-01-07T13:15:32.721Z,1001.72
2023-01-07T13:16:27.782Z,1001.70
2023-01-07T13:17:27.708Z,1001.64
2023-01-07T13:18:27.661Z,1001.64
2023-01-07T13:19:27.659Z,1001.62
2023-01-07T13:20:27.640Z,1001.57
2023-01-07T13:21:28.629Z,1001.63
2023-01-07T13:22:27.661Z,1001.64
2023-01-07T13:23:27.628Z,1001.62
2023-01-07T13:24:54.835Z,1001.55
2023-01-07T13:25:28.588Z,1001.57
2023-01-07T13:26:32.632Z,1001.61
2023-01-07T13:27:27.649Z,1001.55
2023-01-07T13:28:27.555Z,1001.49
2023-01-07T13:29:27.674Z,1001.52
2023-01-07T13:30:27.526Z,1001.56
2023-01-07T13:31:27.560Z,1001.45
2023-01-07T13:32:27.523Z,1001.47
2023-01-07T13:33:27.495Z,1001.39
2023-01-07T13:34:27.489Z,1001.44
2023-01-07T13:35:27.483Z,1001.43
2023-01-07T13:36:27.475Z,1001.36
2023-01-07T13:37:32.483Z,1001.37
2023-01-07T13:38:27.438Z,1001.45
2023-01-07T13:39:27.426Z,1001.41
2023-01-07T13:40:27.421Z,1001.37
2023-01-07T13:41:27.412Z,1001.41
2023-01-07T13:42:27.412Z,1001.40
2023-01-07T13:43:27.386Z,1001.41
2023-01-07T13:44:27.373Z,1001.43
2023-01-07T13:45:27.496Z,1001.47
2023-01-07T13:46:27.436Z,1001.50
2023-01-07T13:47:27.374Z,1001.53
2023-01-07T13:48:32.349Z,1001.51
2023-01-07T13:49:27.334Z,1001.49
2023-01-07T13:50:27.301Z,1001.53
2023-01-07T13:51:27.316Z,1001.49
2023-01-07T13:52:27.325Z,1001.50
2023-01-07T13:53:27.295Z,1001.55
2023-01-07T13:54:27.257Z,1001.44
2023-01-07T13:55:27.245Z,1001.48
2023-01-07T13:56:27.248Z,1001.46
2023-01-07T13:57:27.237Z,1001.45
2023-01-07T13:58:27.215Z,1001.46
2023-01-07T13:59:32.227Z,1001.38
2023-01-07T14:00:27.189Z,1001.41
2023-01-07T14:01:27.458Z,1001.46
2023-01-07T14:02:27.350Z,1001.46
2023-01-07T14:03:27.191Z,1001.42
2023-01-07T14:04:27.148Z,1001.45
2023-01-07T14:05:27.154Z,1001.41
2023-01-07T14:06:27.148Z,1001.36
2023-01-07T14:07:27.131Z,1001.33
2023-01-07T14:08:27.120Z,1001.36
2023-01-07T14:09:27.141Z,1001.34
2023-01-07T14:10:32.098Z,1001.31
2023-01-07T14:11:27.067Z,1001.32
2023-01-07T14:12:27.223Z,1001.27
2023-01-07T14:13:27.053Z,1001.29
2023-01-07T14:14:27.079Z,1001.23
2023-01-07T14:15:27.023Z,1001.19
2023-01-07T14:16:27.019Z,1001.21
2023-01-07T14:17:27.205Z,1001.29
2023-01-07T14:18:26.999Z,1001.17
2023-01-07T14:19:26.984Z,1001.27
2023-01-07T14:20:26.987Z,1001.18
2023-01-07T14:21:31.979Z,1001.16
2023-01-07T14:22:26.958Z,1001.19
2023-01-07T14:23:26.943Z,1001.23
2023-01-07T14:24:26.927Z,1001.17
2023-01-07T14:25:26.919Z,1001.17
2023-01-07T14:26:26.895Z,1001.18
2023-01-07T14:27:26.955Z,1001.15
2023-01-07T14:28:26.895Z,1001.18
2023-01-07T14:29:27.004Z,1001.14
2023-01-07T14:30:26.858Z,1001.18
2023-01-07T14:31:26.906Z,1001.22
2023-01-07T14:32:31.874Z,1001.23
2023-01-07T14:33:26.842Z,1001.24
2023-01-07T14:34:26.814Z,1001.16
2023-01-07T14:35:26.812Z,1001.12
2023-01-07T14:36:26.783Z,1001.09
2023-01-07T14:37:26.849Z,1001.08
2023-01-07T14:38:26.915Z,1001.06
2023-01-07T14:39:26.747Z,1001.08
2023-01-07T14:40:26.771Z,1001.03
2023-01-07T14:41:26.724Z,1001.06
2023-01-07T14:42:26.720Z,1001.10
2023-01-07T14:43:31.758Z,1001.08
2023-01-07T14:44:26.700Z,1001.06
2023-01-07T14:45:26.680Z,1001.01
2023-01-07T14:46:26.716Z,1000.98
2023-01-07T14:47:26.655Z,1000.98
2023-01-07T14:48:26.781Z,1000.99
2023-01-07T14:49:26.636Z,1000.99
2023-01-07T14:50:26.622Z,1001.06
2023-01-07T14:51:26.616Z,1001.00
2023-01-07T14:52:26.648Z,1000.93
2023-01-07T14:53:26.660Z,1000.99
2023-01-07T14:54:31.709Z,1000.94
2023-01-07T14:55:26.580Z,1000.94
2023-01-07T14:56:26.644Z,1000.89
2023-01-07T14:57:26.609Z,1000.90
2023-01-07T14:58:26.549Z,1000.84
2023-01-07T14:59:26.538Z,1000.85
2023-01-07T15:00:26.616Z,1000.84
2023-01-07T15:01:26.673Z,1000.85
2023-01-07T15:02:26.767Z,1000.85
2023-01-07T15:03:26.548Z,1000.85
2023-01-07T15:04:26.509Z,1000.85
2023-01-07T15:05:31.512Z,1000.84
2023-01-07T15:06:26.468Z,1000.88
2023-01-07T15:07:26.436Z,1000.85
2023-01-07T15:08:26.432Z,1000.89
2023-01-07T15:09:26.421Z,1000.85
2023-01-07T15:10:26.409Z,1000.82
2023-01-07T15:11:26.422Z,1000.90
2023-01-07T15:12:26.393Z,1000.83
2023-01-07T15:13:26.415Z,1000.82
2023-01-07T15:14:26.353Z,1000.87
2023-01-07T15:15:26.353Z,1000.83
2023-01-07T15:16:31.410Z,1000.85
2023-01-07T15:17:26.320Z,1000.84
2023-01-07T15:18:26.337Z,1000.87
2023-01-07T15:19:26.338Z,1000.81
2023-01-07T15:20:26.406Z,1000.83
2023-01-07T15:21:26.277Z,1000.80
2023-01-07T15:22:26.291Z,1000.81
2023-01-07T15:23:26.295Z,1000.91
2023-01-07T15:24:26.260Z,1000.86
2023-01-07T15:25:26.222Z,1000.83
2023-01-07T15:26:26.231Z,1000.83
2023-01-07T15:27:31.225Z,1000.81
2023-01-07T15:28:26.222Z,1000.79
2023-01-07T15:29:26.195Z,1000.75
2023-01-07T15:30:26.176Z,1000.82
2023-01-07T15:31:26.253Z,1000.77
2023-01-07T15:32:26.259Z,1000.83
2023-01-07T15:33:26.147Z,1000.82
2023-01-07T15:34:26.125Z,1000.84
2023-01-07T15:35:26.110Z,1000.80
2023-01-07T15:36:26.222Z,1000.80
2023-01-07T15:37:26.112Z,1000.68
2023-01-07T15:38:31.120Z,1000.72
2023-01-07T15:39:26.111Z,1000.69
2023-01-07T15:40:26.062Z,1000.69
2023-01-07T15:41:26.051Z,1000.70
2023-01-07T15:42:26.046Z,1000.73
2023-01-07T15:43:26.026Z,1000.70
2023-01-07T15:44:27.842Z,1000.73
2023-01-07T15:45:25.998Z,1000.73
2023-01-07T15:46:26.040Z,1000.72
2023-01-07T15:47:25.972Z,1000.66
2023-01-07T15:48:25.966Z,1000.72
2023-01-07T15:49:30.988Z,1000.76
2023-01-07T15:50:25.938Z,1000.77
2023-01-07T15:51:25.931Z,1000.79
2023-01-07T15:52:26.033Z,1000.80
2023-01-07T15:53:25.934Z,1000.83
2023-01-07T15:54:25.911Z,1000.81
2023-01-07T15:55:25.927Z,1000.78
2023-01-07T15:56:25.873Z,1000.79
2023-01-07T15:57:25.864Z,1000.74
2023-01-07T15:58:25.859Z,1000.79
2023-01-07T15:59:25.851Z,1000.77
2023-01-07T16:00:30.864Z,1000.78
2023-01-07T16:01:26.035Z,1000.74
2023-01-07T16:02:25.903Z,1000.77
2023-01-07T16:03:25.799Z,1000.78
2023-01-07T16:04:25.918Z,1000.80
2023-01-07T16:05:25.775Z,1000.73
2023-01-07T16:06:25.791Z,1000.77
2023-01-07T16:07:25.753Z,1000.72
2023-01-07T16:08:25.848Z,1000.75
2023-01-07T16:09:25.777Z,1000.74
2023-01-07T16:10:25.716Z,1000.70
2023-01-07T16:11:30.742Z,1000.72
2023-01-07T16:12:25.692Z,1000.69
2023-01-07T16:13:25.679Z,1000.77
2023-01-07T16:14:25.707Z,1000.67
2023-01-07T16:15:25.653Z,1000.71
2023-01-07T16:16:25.708Z,1000.79
2023-01-07T16:17:25.654Z,1000.76
2023-01-07T16:18:25.632Z,1000.72
2023-01-07T16:19:25.619Z,1000.74
2023-01-07T16:20:26.476Z,1000.76
2023-01-07T16:21:25.603Z,1000.74
2023-01-07T16:22:30.615Z,1000.72
2023-01-07T16:23:25.567Z,1000.66
2023-01-07T16:24:25.702Z,1000.71
2023-01-07T16:25:25.541Z,1000.69
2023-01-07T16:26:25.535Z,1000.65
2023-01-07T16:27:25.521Z,1000.60
2023-01-07T16:28:25.539Z,1000.61
2023-01-07T16:29:25.507Z,1000.63
2023-01-07T16:30:25.486Z,1000.57
2023-01-07T16:31:25.544Z,1000.48
2023-01-07T16:32:25.473Z,1000.50
2023-01-07T16:33:30.489Z,1000.46
2023-01-07T16:34:25.477Z,1000.45
2023-01-07T16:35:25.429Z,1000.48
2023-01-07T16:36:25.418Z,1000.50
2023-01-07T16:37:25.477Z,1000.47
2023-01-07T16:38:25.432Z,1000.41
2023-01-07T16:39:25.411Z,1000.40
2023-01-07T16:40:25.491Z,1000.41
2023-01-07T16:41:25.360Z,1000.47
2023-01-07T16:42:25.351Z,1000.44
2023-01-07T16:43:25.347Z,1000.45
2023-01-07T16:44:30.368Z,1000.45
2023-01-07T16:45:25.365Z,1000.40
2023-01-07T16:46:25.407Z,1000.39
2023-01-07T16:47:25.304Z,1000.39
2023-01-07T16:48:25.278Z,1000.34
2023-01-07T16:49:25.293Z,1000.34
2023-01-07T16:50:25.262Z,1000.32
2023-01-07T16:51:25.246Z,1000.31
2023-01-07T16:52:25.239Z,1000.29
2023-01-07T16:53:25.266Z,1000.25
2023-01-07T16:54:25.251Z,1000.18
2023-01-07T16:55:30.354Z,1000.23
2023-01-07T16:56:25.200Z,1000.22
2023-01-07T16:57:25.181Z,1000.23
2023-01-07T16:58:25.168Z,1000.21
2023-01-07T16:59:25.201Z,1000.19
2023-01-07T17:00:25.209Z,1000.19
2023-01-07T17:01:25.267Z,1000.13
2023-01-07T17:02:25.125Z,1000.14
2023-01-07T17:03:25.187Z,1000.18
2023-01-07T17:04:25.133Z,1000.26
2023-01-07T17:05:25.101Z,1000.23